Time;durP1;ratioP1;P1;durP2;ratioP2;P2;SDS_P1;SDS_P2;PMS_P1;PMS_P2;Temp;Humidity;BMP_temperature;BMP_pressure;BME280_temperature;BME280_humidity;BME280_pressure;Samples;Min_cycle;Max_cycle;Signal;HPM_P1;HPM_P2
2023/07/17 09:24:11;;;;;;;9.40;4.78;;;;;;;35.85;23.46;98496.13;5088420;28;20163;-71
2023/07/17 09:26:36;;;;;;;8.00;4.32;;;;;;;34.29;23.08;98488.72;5087299;28;20575;-70
2023/07/17 09:29:01;;;;;;;9.55;5.22;;;;;;;35.63;21.91;98488.97;5070786;28;20056;-71
2023/07/17 09:31:31;;;;;;;9.70;4.90;;;;;;;35.51;22.39;98491.38;4967406;27;20036;-71
2023/07/17 09:33:58;;;;;;;8.60;4.80;;;;;;;34.41;23.30;98484.78;5039395;28;20060;-71
2023/07/17 09:36:24;;;;;;;8.82;4.45;;;;;;;34.29;24.34;98487.94;5046366;28;79478;-71
2023/07/17 09:38:50;;;;;;;6.65;4.40;;;;;;;34.29;23.77;98493.53;5014193;28;20807;-71
2023/07/17 09:41:26;;;;;;;8.68;4.68;;;;;;;33.60;24.52;98501.94;5027000;28;20040;-70
2023/07/17 09:44:03;;;;;;;7.93;5.03;;;;;;;34.98;23.78;98489.34;5026760;28;20176;-70
2023/07/17 09:46:29;;;;;;;7.60;4.72;;;;;;;36.24;22.11;98484.81;5028521;28;20668;-70
2023/07/17 09:48:56;;;;;;;9.82;4.22;;;;;;;36.59;22.47;98479.06;5026800;28;20415;-70
2023/07/17 09:51:22;;;;;;;8.38;4.88;;;;;;;34.21;24.12;98480.72;5022674;28;20045;-71
2023/07/17 09:53:47;;;;;;;12.00;5.00;;;;;;;35.52;21.97;98471.38;5028490;28;20034;-70
2023/07/17 09:56:15;;;;;;;9.15;4.40;;;;;;;34.89;23.75;98483.34;5036018;28;20052;-70
2023/07/17 09:58:45;;;;;;;7.50;4.65;;;;;;;35.21;23.87;98489.78;5046933;28;20412;-71
2023/07/17 10:01:15;;;;;;;8.40;4.20;;;;;;;34.43;24.31;98487.97;5030085;28;20487;-70
2023/07/17 10:03:46;;;;;;;10.18;4.90;;;;;;;34.49;23.44;98486.41;5047251;28;20048;-71
2023/07/17 10:06:19;;;;;;;9.57;4.10;;;;;;;34.87;23.76;98484.94;5033096;28;20045;-72
2023/07/17 10:08:50;;;;;;;7.22;4.72;;;;;;;33.27;24.96;98488.09;5046870;28;20061;-71
2023/07/17 10:11:17;;;;;;;6.07;3.95;;;;;;;32.25;25.94;98482.22;5053049;28;20037;-71
2023/07/17 10:13:43;;;;;;;6.93;4.10;;;;;;;33.55;24.33;98468.75;5022749;28;20025;-71
2023/07/17 10:16:09;;;;;;;8.00;4.05;;;;;;;33.64;24.94;98477.59;5037381;28;20036;-70
2023/07/17 10:18:45;;;;;;;7.00;3.90;;;;;;;34.53;23.94;98470.47;5036940;28;20376;-71
2023/07/17 10:21:10;;;;;;;;;;;;;;;35.81;23.75;98480.50;5026826;28;20038;-71
2023/07/17 10:23:36;;;;;;;8.33;4.70;;;;;;;33.73;25.18;98482.84;5043584;28;19924;-71
2023/07/17 10:26:09;;;;;;;11.63;4.82;;;;;;;33.95;24.70;98474.19;5041658;28;20044;-71
2023/07/17 10:28:36;;;;;;;10.10;4.70;;;;;;;36.19;22.67;98471.19;5034288;28;20064;-70
2023/07/17 10:31:08;;;;;;;7.63;4.28;;;;;;;34.54;23.93;98477.66;5039353;28;20077;-71
2023/07/17 10:33:38;;;;;;;9.10;5.00;;;;;;;35.97;23.71;98475.25;5018357;28;20056;-71
2023/07/17 10:36:04;;;;;;;7.20;4.00;;;;;;;35.85;22.39;98467.31;5037747;28;20072;-70
2023/07/17 10:38:34;;;;;;;7.65;4.05;;;;;;;35.79;23.64;98463.28;5045507;28;20060;-70
2023/07/17 10:41:23;;;;;;;5.60;3.85;;;;;;;34.56;23.60;98464.88;5031005;28;20048;-70
2023/07/17 10:44:03;;;;;;;7.07;4.50;;;;;;;35.24;23.37;98460.94;5009930;28;20117;-70
2023/07/17 10:46:30;;;;;;;8.60;3.92;;;;;;;34.94;23.44;98443.72;5029387;28;20041;-71
2023/07/17 10:49:07;;;;;;;6.82;3.70;;;;;;;36.99;21.39;98429.06;5013920;28;20030;-71
2023/07/17 10:51:33;;;;;;;6.63;3.92;;;;;;;36.45;21.51;98439.84;5026807;28;20108;-71
2023/07/17 10:53:58;;;;;;;6.88;4.03;;;;;;;36.17;20.66;98427.94;5032024;28;20020;-71
2023/07/17 10:56:24;;;;;;;8.55;3.85;;;;;;;36.24;21.97;98445.53;5018369;28;20037;-71
2023/07/17 10:58:49;;;;;;;5.45;4.00;;;;;;;35.52;21.73;98436.94;5011857;28;20076;-70
2023/07/17 11:01:17;;;;;;;6.50;3.55;;;;;;;36.31;22.26;98423.03;5005375;28;20038;-71
2023/07/17 11:03:47;;;;;;;6.47;3.92;;;;;;;37.30;21.28;98430.75;5026512;28;20029;-70
2023/07/17 11:06:17;;;;;;;8.02;4.05;;;;;;;36.97;21.76;98418.22;5015115;28;20099;-70
2023/07/17 11:08:47;;;;;;;6.72;3.80;;;;;;;36.83;21.69;98414.72;5017497;28;20500;-71
2023/07/17 11:11:12;;;;;;;7.22;4.20;;;;;;;37.51;20.90;98418.56;5029597;28;20431;-70
2023/07/17 11:13:38;;;;;;;6.20;3.58;;;;;;;34.79;22.08;98436.53;5022196;28;20025;-72
2023/07/17 11:16:07;;;;;;;9.75;3.97;;;;;;;38.56;19.60;98427.69;5026661;28;20041;-70
2023/07/17 11:18:33;;;;;;;9.70;4.00;;;;;;;37.67;20.10;98425.19;5013322;28;20030;-71
2023/07/17 11:20:58;;;;;;;7.32;4.00;;;;;;;36.47;19.41;98422.56;5025348;28;20502;-72
2023/07/17 11:23:23;;;;;;;110.10;13.45;;;;;;;36.60;20.19;98418.06;5022806;28;20041;-71
2023/07/17 11:25:49;;;;;;;9.10;4.03;;;;;;;38.16;20.77;98418.19;5016351;28;20176;-71
2023/07/17 11:28:14;;;;;;;6.80;4.00;;;;;;;36.22;20.73;98419.91;5018192;28;20472;-72
2023/07/17 11:30:40;;;;;;;9.45;3.40;;;;;;;35.49;19.63;98437.72;4995482;28;20032;-71
2023/07/17 11:33:07;;;;;;;7.53;3.72;;;;;;;36.19;19.85;98406.69;5012799;28;20089;-72
2023/07/17 11:35:52;;;;;;;6.53;3.78;;;;;;;37.58;18.49;98410.81;5030811;28;20038;-71
2023/07/17 11:38:18;;;;;;;6.15;3.25;;;;;;;33.94;20.97;98422.25;5016689;28;20040;-72
2023/07/17 11:40:56;;;;;;;8.38;3.50;;;;;;;35.47;19.56;98429.72;5025951;28;20025;-70
2023/07/17 11:43:26;;;;;;;5.38;3.63;;;;;;;37.33;19.01;98399.81;5027413;28;20496;-71
2023/07/17 11:45:56;;;;;;;5.47;3.80;;;;;;;37.74;18.06;98402.59;4998751;28;20037;-70
2023/07/17 11:48:23;;;;;;;8.98;3.90;;;;;;;35.44;20.07;98408.09;5011505;28;20057;-70
2023/07/17 11:51:22;;;;;;;7.05;3.35;;;;;;;36.55;19.67;98399.66;5016902;28;20671;-70
2023/07/17 11:53:55;;;;;;;6.93;3.70;;;;;;;37.41;18.91;98389.34;5024540;28;20030;-70
2023/07/17 11:56:31;;;;;;;6.60;3.40;;;;;;;37.55;19.28;98388.38;5005441;28;20041;-70
2023/07/17 11:58:57;;;;;;;6.32;3.28;;;;;;;36.76;19.31;98381.06;5016801;28;20033;-70
2023/07/17 12:01:22;;;;;;;8.43;3.45;;;;;;;36.97;18.48;98392.16;5027947;28;20099;-70
2023/07/17 12:03:48;;;;;;;6.63;3.33;;;;;;;36.32;19.27;98410.59;5027250;28;20492;-72
2023/07/17 12:06:13;;;;;;;8.05;4.32;;;;;;;35.99;20.11;98389.53;5011220;28;20021;-70
2023/07/17 12:08:40;;;;;;;6.05;3.60;;;;;;;36.23;19.27;98381.41;5016621;28;20042;-71
2023/07/17 12:11:06;;;;;;;6.63;3.60;;;;;;;36.79;18.29;98374.59;5026064;28;20030;-71
2023/07/17 12:13:31;;;;;;;5.68;3.25;;;;;;;35.35;19.39;98380.50;5014346;28;20041;-71
2023/07/17 12:15:57;;;;;;;5.70;3.28;;;;;;;35.68;19.75;98367.22;5018632;28;20408;-70
2023/07/17 12:18:22;;;;;;;6.15;3.20;;;;;;;36.55;18.90;98360.34;5027346;28;20049;-71
2023/07/17 12:20:48;;;;;;;6.15;3.35;;;;;;;36.14;19.45;98373.44;5019771;28;20025;-71
2023/07/17 12:23:14;;;;;;;6.45;3.35;;;;;;;37.19;18.50;98355.00;5015464;28;20061;-70
2023/07/17 12:25:42;;;;;;;4.53;3.22;;;;;;;35.28;19.86;98377.72;5011332;28;20089;-70
2023/07/17 12:28:08;;;;;;;4.88;3.28;;;;;;;35.39;20.18;98378.50;5020693;28;20048;-71
2023/07/17 12:30:33;;;;;;;6.75;3.05;;;;;;;35.00;20.54;98366.53;5022297;28;20061;-71
2023/07/17 12:32:59;;;;;;;4.75;3.30;;;;;;;36.62;17.94;98354.69;5010495;28;20593;-71
2023/07/17 12:35:24;;;;;;;6.57;3.22;;;;;;;37.42;18.57;98362.81;5010843;28;20116;-74
2023/07/17 12:37:50;;;;;;;7.30;3.55;;;;;;;36.31;19.11;98358.50;5020100;28;20120;-74
2023/07/17 12:40:15;;;;;;;9.93;3.45;;;;;;;35.89;19.70;98362.34;5016963;28;20421;-74
2023/07/17 12:42:40;;;;;;;5.07;3.30;;;;;;;35.01;20.19;98362.50;5017350;28;20030;-74
2023/07/17 12:45:06;;;;;;;6.43;3.05;;;;;;;36.52;18.96;98347.16;5011494;28;20530;-74
2023/07/17 12:47:32;;;;;;;7.32;3.33;;;;;;;36.88;19.25;98355.28;5014823;28;20088;-74
2023/07/17 12:49:57;;;;;;;4.40;3.53;;;;;;;36.84;18.78;98360.13;5022274;28;20033;-74
2023/07/17 12:52:24;;;;;;;7.13;3.53;;;;;;;36.16;19.19;98353.38;5021813;28;20034;-74
2023/07/17 12:54:49;;;;;;;6.95;3.30;;;;;;;37.01;19.00;98348.78;5005898;28;20021;-74
2023/07/17 12:57:15;;;;;;;8.43;3.53;;;;;;;36.20;19.37;98338.13;5022184;28;20038;-74
2023/07/17 12:59:40;;;;;;;8.25;3.58;;;;;;;36.80;18.36;98345.31;5022287;28;20025;-74
2023/07/17 13:02:07;;;;;;;7.38;4.05;;;;;;;37.20;18.13;98341.75;5022177;28;20615;-74
2023/07/17 13:04:33;;;;;;;4.78;3.35;;;;;;;37.65;18.62;98337.63;5021259;28;20053;-74
2023/07/17 13:06:58;;;;;;;7.78;3.38;;;;;;;37.78;18.58;98330.25;4993857;28;20044;-74
2023/07/17 13:09:24;;;;;;;6.05;3.63;;;;;;;37.15;18.92;98330.97;5011422;28;20036;-75
2023/07/17 13:11:49;;;;;;;5.18;3.20;;;;;;;36.90;19.14;98336.00;5014842;28;20038;-74
2023/07/17 13:14:15;;;;;;;9.32;3.80;;;;;;;36.18;18.59;98340.53;5011336;28;20060;-74
2023/07/17 13:16:40;;;;;;;7.68;3.67;;;;;;;36.14;19.55;98331.34;5014392;28;20038;-74
2023/07/17 13:19:05;;;;;;;4.95;3.33;;;;;;;34.81;20.63;98347.34;5025383;28;20444;-74
2023/07/17 13:21:31;;;;;;;8.98;3.53;;;;;;;37.53;18.18;98326.16;5022519;28;20064;-74
2023/07/17 13:23:58;;;;;;;4.85;3.30;;;;;;;37.11;18.65;98330.22;5004826;28;20030;-74
2023/07/17 13:26:28;;;;;;;4.93;3.08;;;;;;;37.93;18.55;98331.69;5022036;28;20038;-73
2023/07/17 13:28:53;;;;;;;8.43;3.70;;;;;;;37.75;18.64;98336.72;5024790;28;20033;-74
2023/07/17 13:31:19;;;;;;;7.22;3.60;;;;;;;35.90;18.78;98344.28;5009605;28;20088;-74
2023/07/17 13:33:44;;;;;;;5.43;3.53;;;;;;;37.83;16.63;98331.84;5009579;28;20041;-74
2023/07/17 13:36:09;;;;;;;7.13;3.58;;;;;;;36.20;17.86;98338.13;5014477;28;20030;-74
2023/07/17 13:38:35;;;;;;;5.45;3.40;;;;;;;35.71;19.52;98344.00;5023949;28;20132;-74
2023/07/17 13:41:00;;;;;;;10.27;3.40;;;;;;;37.15;18.38;98342.22;5030462;28;20049;-74
2023/07/17 13:43:26;;;;;;;4.65;3.45;;;;;;;37.76;18.13;98324.22;5005071;28;20045;-74
2023/07/17 13:45:51;;;;;;;8.13;3.60;;;;;;;37.89;17.15;98335.75;5029288;28;20025;-74
2023/07/17 13:48:18;;;;;;;6.68;3.70;;;;;;;35.30;19.40;98336.09;5029445;28;20128;-74
2023/07/17 13:50:45;;;;;;;5.78;3.60;;;;;;;36.91;18.92;98334.78;5005836;28;20061;-74
2023/07/17 13:53:10;;;;;;;7.10;3.47;;;;;;;36.73;18.95;98329.34;5020483;28;20033;-74
2023/07/17 13:55:35;;;;;;;8.50;3.95;;;;;;;36.88;19.00;98324.38;5009788;28;20049;-74
2023/07/17 13:58:01;;;;;;;6.22;3.63;;;;;;;38.63;18.41;98327.00;5009675;28;20101;-74
2023/07/17 14:00:27;;;;;;;7.65;4.00;;;;;;;39.43;18.36;98313.94;5013901;28;20399;-74
2023/07/17 14:02:53;;;;;;;5.65;3.60;;;;;;;38.57;16.83;98305.41;5024947;28;20037;-74
2023/07/17 14:05:18;;;;;;;6.50;3.72;;;;;;;39.52;16.75;98314.16;5012914;28;20121;-74
2023/07/17 14:07:44;;;;;;;6.43;3.72;;;;;;;39.57;16.27;98313.63;5029128;28;20048;-74
2023/07/17 14:10:09;;;;;;;6.43;4.35;;;;;;;38.84;16.60;98320.25;4995775;28;20033;-74
2023/07/17 14:12:34;;;;;;;6.82;4.15;;;;;;;36.43;19.20;98329.94;5027446;28;20566;-74
2023/07/17 14:15:00;;;;;;;6.57;4.00;;;;;;;35.76;20.01;98326.72;5025426;28;20029;-75
2023/07/17 14:17:25;;;;;;;6.18;4.15;;;;;;;38.70;17.01;98314.81;5008147;28;20030;-75
2023/07/17 14:19:51;;;;;;;6.60;4.20;;;;;;;39.23;16.83;98306.25;5025903;28;20572;-74
2023/07/17 14:22:16;;;;;;;5.63;3.92;;;;;;;38.43;17.93;98314.09;5023519;28;20038;-74
2023/07/17 14:24:41;;;;;;;10.32;4.07;;;;;;;38.03;17.63;98316.66;5012980;28;20492;-74
2023/07/17 14:27:07;;;;;;;7.22;4.05;;;;;;;38.50;17.63;98311.16;5012984;28;20053;-74
2023/07/17 14:29:32;;;;;;;5.35;3.78;;;;;;;35.54;19.50;98317.63;5013041;28;20128;-74
2023/07/17 14:31:57;;;;;;;7.47;4.07;;;;;;;35.52;20.00;98331.25;5013588;28;20033;-74
2023/07/17 14:34:24;;;;;;;7.25;4.10;;;;;;;35.46;20.87;98326.41;4999970;28;20107;-74
2023/07/17 14:36:50;;;;;;;5.47;3.67;;;;;;;36.62;19.64;98309.78;5023267;28;20111;-73
2023/07/17 14:39:15;;;;;;;7.35;4.10;;;;;;;36.38;20.07;98307.94;5012817;28;20029;-74
2023/07/17 14:41:41;;;;;;;6.43;4.22;;;;;;;39.07;16.96;98296.91;5019998;28;20045;-75
2023/07/17 14:44:06;;;;;;;7.38;3.75;;;;;;;38.29;17.68;98303.06;5033293;28;20026;-75
2023/07/17 14:46:31;;;;;;;6.03;4.15;;;;;;;39.60;16.64;98301.53;5033603;28;20040;-75
2023/07/17 14:48:57;;;;;;;5.35;3.80;;;;;;;38.29;17.90;98303.84;5015730;28;20668;-75
2023/07/17 14:51:22;;;;;;;6.45;4.10;;;;;;;37.97;17.24;98293.03;4996334;28;20037;-74
2023/07/17 14:53:48;;;;;;;6.72;3.85;;;;;;;38.94;17.31;98316.44;5011838;28;20033;-75
2023/07/17 14:56:14;;;;;;;8.38;3.88;;;;;;;39.46;16.15;98296.97;5005496;28;20091;-74
2023/07/17 14:58:39;;;;;;;6.93;3.67;;;;;;;40.23;15.45;98283.19;5028272;28;20022;-74
2023/07/17 15:01:05;;;;;;;9.40;3.72;;;;;;;38.43;17.50;98297.19;5029060;28;20563;-74
2023/07/17 15:03:30;;;;;;;9.52;3.40;;;;;;;37.66;17.13;98283.00;5012147;28;20022;-74
2023/07/17 15:05:55;;;;;;;5.93;3.90;;;;;;;39.10;16.72;98294.00;5005111;28;20060;-73
2023/07/17 15:08:21;;;;;;;4.90;3.17;;;;;;;38.90;17.11;98293.19;5031161;28;20056;-74
2023/07/17 15:10:46;;;;;;;5.35;3.63;;;;;;;35.19;19.82;98318.53;5033299;28;20483;-73
2023/07/17 15:13:11;;;;;;;5.57;3.08;;;;;;;35.84;19.36;98303.06;5012881;28;20018;-74
2023/07/17 15:15:37;;;;;;;9.82;3.40;;;;;;;35.48;19.45;98287.59;5021061;28;20049;-73
2023/07/17 15:18:03;;;;;;;5.75;3.35;;;;;;;39.92;16.17;98279.06;5030919;28;20475;-74
2023/07/17 15:20:28;;;;;;;6.18;3.40;;;;;;;38.18;17.33;98288.31;5033084;28;20029;-74
2023/07/17 15:22:54;;;;;;;14.45;13.50;;;;;;;38.09;16.90;98288.06;5012753;28;20034;-74
2023/07/17 15:25:19;;;;;;;47.85;45.75;;;;;;;38.26;17.25;98276.53;5025114;28;20412;-74
2023/07/17 15:27:44;;;;;;;5.78;5.18;;;;;;;34.58;19.99;98293.78;5013284;28;20025;-74
2023/07/17 15:30:10;;;;;;;5.05;4.55;;;;;;;35.30;19.94;98296.88;5012076;28;20117;-74
2023/07/17 15:32:36;;;;;;;5.82;3.38;;;;;;;39.01;16.53;98276.88;5011630;28;20018;-74
2023/07/17 15:35:02;;;;;;;9.27;4.45;;;;;;;37.01;18.14;98280.56;5012991;28;20033;-74
2023/07/17 15:37:27;;;;;;;6.30;3.72;;;;;;;39.18;16.89;98274.97;5025074;28;20045;-74
2023/07/17 15:39:52;;;;;;;5.90;3.45;;;;;;;38.05;17.86;98288.91;5010460;28;20033;-74
2023/07/17 15:42:18;;;;;;;4.03;2.60;;;;;;;36.39;18.68;98292.69;5019242;28;20025;-74
2023/07/17 15:44:43;;;;;;;6.90;3.28;;;;;;;38.78;17.04;98285.34;5024937;28;20043;-74
2023/07/17 15:47:09;;;;;;;6.63;3.13;;;;;;;38.83;17.32;98279.22;5023960;28;20048;-74
2023/07/17 15:49:34;;;;;;;4.97;3.13;;;;;;;35.35;19.68;98287.25;5023965;28;20112;-74
2023/07/17 15:51:59;;;;;;;5.25;3.45;;;;;;;33.80;20.98;98282.44;5023457;28;20033;-74
2023/07/17 15:54:25;;;;;;;6.15;3.30;;;;;;;35.20;20.54;98286.50;5023761;28;20121;-74
2023/07/17 15:56:50;;;;;;;5.18;3.65;;;;;;;37.57;18.38;98268.66;5019946;28;20026;-73
2023/07/17 15:59:15;;;;;;;6.53;3.17;;;;;;;38.19;17.78;98275.81;4999951;28;20060;-74
2023/07/17 16:01:41;;;;;;;5.45;3.25;;;;;;;38.44;17.57;98284.72;5018209;28;20030;-74
2023/07/17 16:04:06;;;;;;;17.15;15.88;;;;;;;38.87;16.64;98271.50;5012833;28;20072;-74
2023/07/17 16:06:32;;;;;;;4.68;3.25;;;;;;;37.46;18.14;98284.84;5025510;28;20079;-74
2023/07/17 16:08:57;;;;;;;9.18;3.50;;;;;;;34.81;20.34;98299.75;5023286;28;20492;-74
2023/07/17 16:11:23;;;;;;;8.80;7.18;;;;;;;35.31;20.61;98301.25;5032062;28;20507;-74
2023/07/17 16:13:48;;;;;;;27.05;25.42;;;;;;;37.36;17.95;98285.78;5020808;28;20099;-74
2023/07/17 16:16:13;;;;;;;57.97;55.42;;;;;;;36.32;18.71;98289.13;5025060;28;20025;-74
2023/07/17 16:18:39;;;;;;;6.05;3.17;;;;;;;38.38;18.09;98289.22;5018142;28;20041;-74
2023/07/17 16:21:05;;;;;;;5.95;2.90;;;;;;;38.51;17.45;98282.56;5010800;28;20025;-74
2023/07/17 16:23:31;;;;;;;6.13;3.00;;;;;;;39.14;17.23;98291.91;5010626;28;20034;-74
2023/07/17 16:25:57;;;;;;;7.78;3.33;;;;;;;38.10;17.70;98300.91;5028044;28;20528;-74
2023/07/17 16:28:23;;;;;;;5.35;3.60;;;;;;;36.92;18.88;98297.09;5030285;28;20128;-74
2023/07/17 16:30:48;;;;;;;4.63;2.83;;;;;;;36.31;19.23;98293.97;5030478;28;20029;-74
2023/07/17 16:33:16;;;;;;;5.25;3.22;;;;;;;35.70;20.23;98303.13;5020854;28;20034;-74
2023/07/17 16:35:41;;;;;;;5.22;2.65;;;;;;;35.59;19.94;98299.59;5027903;28;20078;-74
2023/07/17 16:38:07;;;;;;;4.82;3.00;;;;;;;39.02;17.36;98300.22;5027078;28;20116;-74
2023/07/17 16:40:32;;;;;;;4.82;3.22;;;;;;;38.24;17.82;98278.97;5022526;28;20385;-74
2023/07/17 16:42:58;;;;;;;4.90;3.30;;;;;;;38.08;17.49;98297.72;5023265;28;20055;-74
2023/07/17 16:45:23;;;;;;;5.57;3.45;;;;;;;37.84;18.05;98296.84;5021006;28;20388;-74
2023/07/17 16:47:48;;;;;;;5.97;3.03;;;;;;;35.80;19.63;98308.69;5019897;28;20112;-74
2023/07/17 16:50:14;;;;;;;6.63;3.15;;;;;;;35.39;20.11;98299.22;5007663;28;20503;-74
2023/07/17 16:52:40;;;;;;;5.47;3.08;;;;;;;35.35;19.63;98310.47;5021734;28;20116;-74
2023/07/17 16:55:05;;;;;;;7.38;2.85;;;;;;;35.60;19.68;98303.97;5031404;28;20025;-74
2023/07/17 16:57:31;;;;;;;7.78;3.00;;;;;;;35.12;19.90;98307.34;5029836;28;20036;-74
2023/07/17 16:59:57;;;;;;;10.23;2.92;;;;;;;35.77;20.23;98311.50;5013242;28;20030;-74
2023/07/17 17:02:22;;;;;;;5.53;3.28;;;;;;;36.06;20.01;98299.75;5037019;28;20045;-74
2023/07/17 17:04:48;;;;;;;5.88;2.80;;;;;;;34.68;20.79;98299.34;5013183;28;20519;-74
2023/07/17 17:07:13;;;;;;;5.97;3.17;;;;;;;36.05;19.40;98302.97;5021876;28;20045;-74
2023/07/17 17:09:38;;;;;;;10.90;9.95;;;;;;;35.35;19.33;98309.66;5012734;28;20030;-74
2023/07/17 17:12:04;;;;;;;26.27;24.58;;;;;;;35.60;18.92;98309.59;5011246;28;20095;-74
2023/07/17 17:14:29;;;;;;;14.77;13.75;;;;;;;34.21;19.89;98318.50;5011145;28;20032;-74
2023/07/17 17:16:55;;;;;;;9.45;3.05;;;;;;;35.16;19.97;98308.13;5017042;28;20395;-73
2023/07/17 17:19:20;;;;;;;6.00;2.53;;;;;;;35.46;19.69;98309.59;5027864;28;20035;-73
2023/07/17 17:21:46;;;;;;;21.27;20.08;;;;;;;36.15;18.87;98310.53;5019649;28;20052;-73
2023/07/17 17:24:13;;;;;;;20.75;19.23;;;;;;;35.12;19.27;98326.94;5025695;28;20364;-74
2023/07/17 17:26:39;;;;;;;13.77;12.00;;;;;;;35.74;18.46;98320.72;5019794;28;20084;-74
2023/07/17 17:29:04;;;;;;;6.95;4.97;;;;;;;34.10;19.20;98323.28;5026356;28;20025;-73
2023/07/17 17:31:30;;;;;;;8.02;5.20;;;;;;;35.11;18.81;98322.53;5019864;28;20511;-74
2023/07/17 17:33:55;;;;;;;20.98;19.70;;;;;;;34.63;18.82;98324.16;5027202;28;20030;-74
2023/07/17 17:36:21;;;;;;;12.02;9.35;;;;;;;35.82;18.45;98327.91;5030709;28;20053;-74
2023/07/17 17:38:46;;;;;;;3.15;2.30;;;;;;;34.45;18.66;98340.13;5009790;28;20022;-74
2023/07/17 17:41:12;;;;;;;5.95;4.40;;;;;;;34.53;18.45;98331.34;5017553;28;20552;-74
2023/07/17 17:43:37;;;;;;;4.72;2.75;;;;;;;34.81;18.24;98330.56;5025223;28;20022;-74
2023/07/17 17:46:03;;;;;;;7.25;6.65;;;;;;;35.15;18.45;98340.13;5024046;28;20492;-74
2023/07/17 17:48:28;;;;;;;12.35;11.45;;;;;;;36.23;17.47;98328.88;5028921;28;20022;-74
2023/07/17 17:50:53;;;;;;;16.00;14.80;;;;;;;35.40;18.04;98338.03;5007971;28;20072;-73
2023/07/17 17:53:19;;;;;;;17.92;16.48;;;;;;;34.63;19.10;98340.97;5014480;28;20068;-74
2023/07/17 17:55:44;;;;;;;11.90;11.20;;;;;;;33.35;19.53;98345.28;4997575;28;20030;-73
2023/07/17 17:58:10;;;;;;;11.70;10.90;;;;;;;34.60;18.71;98341.75;5026587;28;20021;-73
2023/07/17 18:00:35;;;;;;;7.28;6.65;;;;;;;33.86;19.56;98359.16;5019193;28;20038;-74
2023/07/17 18:03:02;;;;;;;51.28;49.13;;;;;;;34.60;18.62;98356.53;5026496;28;20116;-74
2023/07/17 18:05:28;;;;;;;10.65;9.95;;;;;;;34.55;18.65;98362.53;5031991;28;20041;-74
2023/07/17 18:07:53;;;;;;;8.20;7.47;;;;;;;33.65;19.22;98363.84;5013218;28;20029;-74
2023/07/17 18:10:19;;;;;;;11.60;10.50;;;;;;;34.94;18.81;98368.13;5002251;28;20080;-73
2023/07/17 18:12:44;;;;;;;3.15;1.90;;;;;;;34.73;18.30;98362.53;5022025;28;20490;-74
2023/07/17 18:15:09;;;;;;;5.03;2.10;;;;;;;33.34;19.55;98374.44;5024390;28;20038;-74
2023/07/17 18:17:35;;;;;;;3.03;1.80;;;;;;;34.80;18.35;98373.72;5009756;28;20108;-73
2023/07/17 18:20:01;;;;;;;4.63;2.40;;;;;;;33.61;19.29;98380.56;5025848;28;20042;-74
2023/07/17 18:22:26;;;;;;;11.27;10.45;;;;;;;34.66;18.70;98373.72;5040542;28;20049;-74
2023/07/17 18:24:51;;;;;;;9.27;8.45;;;;;;;34.71;18.72;98378.94;5025446;28;20029;-74
2023/07/17 18:27:17;;;;;;;29.00;26.63;;;;;;;33.65;19.72;98381.41;5019077;28;20104;-73
2023/07/17 18:29:42;;;;;;;7.88;5.32;;;;;;;34.23;18.86;98388.84;5001315;28;20470;-73
2023/07/17 18:32:08;;;;;;;8.15;6.05;;;;;;;32.77;20.17;98391.16;5028542;28;20031;-73
2023/07/17 18:34:33;;;;;;;26.42;24.85;;;;;;;33.50;19.57;98393.66;5025146;28;20538;-73
2023/07/17 18:36:59;;;;;;;43.53;40.85;;;;;;;33.75;19.58;98403.00;5028579;28;20027;-73
2023/07/17 18:39:27;;;;;;;69.35;64.28;;;;;;;33.96;19.27;98403.09;5007956;28;20100;-74
2023/07/17 18:41:52;;;;;;;4.32;2.20;;;;;;;33.23;19.89;98411.88;5015854;28;20101;-74
2023/07/17 18:44:18;;;;;;;3.65;2.40;;;;;;;33.82;19.54;98403.03;5023920;28;20053;-73
2023/07/17 18:46:43;;;;;;;4.40;2.67;;;;;;;34.41;18.74;98404.44;5028841;28;20025;-74
2023/07/17 18:49:09;;;;;;;3.13;2.30;;;;;;;33.37;20.36;98411.97;5024371;28;20052;-74
2023/07/17 18:51:37;;;;;;;4.40;2.60;;;;;;;33.25;20.30;98409.47;5023809;28;20083;-73
2023/07/17 18:54:04;;;;;;;3.90;2.55;;;;;;;33.64;20.27;98424.50;5001550;28;20040;-73
2023/07/17 18:56:30;;;;;;;4.38;2.55;;;;;;;33.22;20.29;98413.03;5012359;28;20388;-73
2023/07/17 18:58:56;;;;;;;6.03;2.60;;;;;;;34.06;19.46;98423.94;5017598;28;20041;-73
2023/07/17 19:01:22;;;;;;;3.42;2.40;;;;;;;33.54;20.45;98422.44;5024058;28;20022;-73
2023/07/17 19:03:49;;;;;;;3.38;2.40;;;;;;;34.10;20.00;98429.56;4996036;28;20038;-73
2023/07/17 19:06:15;;;;;;;3.38;2.42;;;;;;;33.73;19.97;98427.75;5024346;28;20104;-73
2023/07/17 19:08:40;;;;;;;4.32;2.47;;;;;;;34.40;19.58;98427.25;5017280;28;20072;-73
2023/07/17 19:11:15;;;;;;;5.82;2.50;;;;;;;34.04;20.13;98429.94;5009045;28;20395;-74
2023/07/17 19:13:41;;;;;;;4.40;2.60;;;;;;;34.52;19.85;98438.88;5033088;28;20029;-73
2023/07/17 19:16:06;;;;;;;5.13;2.42;;;;;;;33.87;19.89;98432.59;5033203;28;20882;-72
2023/07/17 19:18:31;;;;;;;7.72;2.78;;;;;;;33.95;20.25;98435.06;5015368;28;20030;-74
2023/07/17 19:20:57;;;;;;;4.72;2.70;;;;;;;33.86;20.13;98448.59;5033167;28;20384;-73
2023/07/17 19:23:22;;;;;;;5.85;2.47;;;;;;;34.74;19.45;98445.31;5027984;28;20108;-73
2023/07/17 19:25:47;;;;;;;5.07;2.45;;;;;;;34.17;19.42;98457.53;5028452;28;20025;-73
2023/07/17 19:28:13;;;;;;;5.03;2.70;;;;;;;33.35;20.69;98467.41;5022996;28;20037;-73
2023/07/17 19:30:38;;;;;;;5.05;2.50;;;;;;;32.90;21.01;98467.78;5026171;28;20388;-73
2023/07/17 19:33:03;;;;;;;4.97;2.67;;;;;;;33.39;20.67;98462.63;5015085;28;20103;-73
2023/07/17 19:35:29;;;;;;;3.55;2.70;;;;;;;33.72;20.18;98479.25;5032773;28;20029;-74
2023/07/17 19:37:54;;;;;;;4.72;2.45;;;;;;;35.05;19.25;98480.97;5032651;28;20064;-73
2023/07/17 19:40:20;;;;;;;5.93;2.50;;;;;;;34.18;19.54;98481.50;5011632;28;20121;-74
2023/07/17 19:42:45;;;;;;;6.47;2.97;;;;;;;35.02;19.54;98481.78;5016694;28;20049;-73
2023/07/17 19:45:10;;;;;;;5.78;2.63;;;;;;;34.51;19.71;98489.63;4998633;28;20032;-73
2023/07/17 19:47:36;;;;;;;5.30;2.55;;;;;;;33.60;20.48;98493.53;5014799;28;20103;-73
2023/07/17 19:50:01;;;;;;;4.90;2.50;;;;;;;35.24;18.83;98500.16;5016134;28;20025;-74
2023/07/17 19:52:26;;;;;;;5.15;2.80;;;;;;;35.67;19.12;98494.56;5000016;28;20122;-73
2023/07/17 19:54:52;;;;;;;4.85;3.08;;;;;;;35.31;19.84;98500.16;5027411;28;20057;-73
2023/07/17 19:57:17;;;;;;;5.60;2.70;;;;;;;35.83;20.04;98503.31;5027900;28;20045;-73
2023/07/17 19:59:43;;;;;;;6.25;2.50;;;;;;;36.28;19.05;98499.63;5018073;28;20100;-73
2023/07/17 20:02:09;;;;;;;4.60;2.78;;;;;;;36.15;19.26;98509.69;5012673;28;20048;-73
2023/07/17 20:04:34;;;;;;;3.35;2.25;;;;;;;35.94;20.48;98509.72;5012438;28;20021;-73
2023/07/17 20:07:00;;;;;;;4.35;2.50;;;;;;;35.70;20.12;98510.56;5010272;28;20408;-73
2023/07/17 20:09:31;;;;;;;7.15;2.63;;;;;;;34.10;20.86;98513.44;5012384;28;20054;-73
2023/07/17 20:11:57;;;;;;;6.50;2.40;;;;;;;35.27;19.98;98510.56;5021824;28;20060;-73
2023/07/17 20:14:22;;;;;;;6.65;2.78;;;;;;;35.48;20.79;98518.16;5010884;28;20022;-73
2023/07/17 20:16:48;;;;;;;3.85;2.85;;;;;;;35.45;20.88;98527.41;5015896;28;20037;-73
2023/07/17 20:19:14;;;;;;;3.15;2.38;;;;;;;35.52;21.08;98526.63;5011096;28;20030;-73
2023/07/17 20:21:39;;;;;;;4.80;2.72;;;;;;;35.43;20.63;98519.38;5010897;28;20037;-73
2023/07/17 20:24:05;;;;;;;4.30;2.50;;;;;;;34.84;21.63;98519.31;5026081;28;20083;-73
2023/07/17 20:26:31;;;;;;;6.13;2.78;;;;;;;35.25;21.58;98524.19;5031871;28;20474;-73
2023/07/17 20:28:57;;;;;;;5.22;2.60;;;;;;;35.23;22.11;98525.78;5031771;28;20516;-74
2023/07/17 20:31:22;;;;;;;4.18;2.72;;;;;;;35.11;21.95;98518.56;5031883;28;20171;-73
2023/07/17 20:33:47;;;;;;;5.72;2.90;;;;;;;34.66;22.57;98524.84;4994220;28;20021;-73
2023/07/17 20:36:13;;;;;;;5.47;2.78;;;;;;;34.40;22.92;98533.56;5020294;28;20047;-74
2023/07/17 20:38:38;;;;;;;4.82;2.67;;;;;;;34.75;22.55;98522.50;5031522;28;20498;-73
2023/07/17 20:41:04;;;;;;;5.97;2.70;;;;;;;34.49;22.48;98520.78;5023506;28;20037;-73
2023/07/17 20:43:29;;;;;;;6.82;2.90;;;;;;;34.34;23.06;98540.69;5005200;28;20385;-73
2023/07/17 20:45:54;;;;;;;4.57;2.65;;;;;;;34.29;22.46;98539.09;5018294;28;20059;-73
2023/07/17 20:48:20;;;;;;;6.15;3.25;;;;;;;34.54;22.29;98539.22;5017044;28;20396;-73
2023/07/17 20:51:01;;;;;;;5.35;2.67;;;;;;;35.36;22.11;98541.78;5022629;28;20034;-71